Time;durP1;ratioP1;P1;durP2;ratioP2;P2;SDS_P1;SDS_P2;PMS_P1;PMS_P2;Temp;Humidity;BMP_temperature;BMP_pressure;BME280_temperature;BME280_humidity;BME280_pressure;Samples;Min_cycle;Max_cycle;Signal;HPM_P1;HPM_P2
2023/08/17 00:01:23;;;;;;;0.10;0.10;;;;;;;;;;5116276;27;20043;-56
2023/08/17 00:03:48;;;;;;;0.10;0.10;;;;;;;;;;5110945;28;20050;-56
2023/08/17 00:06:14;;;;;;;0.10;0.10;;;;;;;;;;5110288;28;20085;-56
2023/08/17 00:08:40;;;;;;;0.10;0.10;;;;;;;;;;5116854;28;20545;-56
2023/08/17 00:11:05;;;;;;;0.10;0.10;;;;;;;;;;5099031;28;20074;-56
2023/08/17 00:13:31;;;;;;;0.10;0.10;;;;;;;;;;5095009;28;20064;-56
2023/08/17 00:15:56;;;;;;;0.17;0.17;;;;;;;;;;5105437;28;20085;-55
2023/08/17 00:18:22;;;;;;;0.10;0.10;;;;;;;;;;5100472;28;20081;-56
2023/08/17 00:20:48;;;;;;;0.10;0.10;;;;;;;;;;5091362;28;20087;-56
2023/08/17 00:23:13;;;;;;;0.20;0.20;;;;;;;;;;5088443;28;20151;-56
2023/08/17 00:25:39;;;;;;;0.10;0.10;;;;;;;;;;5118919;28;20043;-56
2023/08/17 00:28:05;;;;;;;0.10;0.10;;;;;;;;;;5114747;28;20126;-56
2023/08/17 00:30:30;;;;;;;0.10;0.10;;;;;;;;;;5108787;28;20052;-55
2023/08/17 00:32:56;;;;;;;0.10;0.10;;;;;;;;;;5096472;28;20052;-56
2023/08/17 00:35:21;;;;;;;0.10;0.10;;;;;;;;;;5114991;28;20069;-56
2023/08/17 00:37:47;;;;;;;0.10;0.10;;;;;;;;;;5103414;28;20158;-55
2023/08/17 00:40:12;;;;;;;0.10;0.10;;;;;;;;;;5105742;28;20048;-56
2023/08/17 00:42:38;;;;;;;0.10;0.10;;;;;;;;;;5105074;28;20059;-56
2023/08/17 00:45:04;;;;;;;0.10;0.10;;;;;;;;;;5111856;27;20248;-56
2023/08/17 00:47:29;;;;;;;0.10;0.10;;;;;;;;;;5120221;28;20243;-55
2023/08/17 00:49:56;;;;;;;0.10;0.10;;;;;;;;;;5113918;28;20217;-55
2023/08/17 00:52:22;;;;;;;0.10;0.10;;;;;;;;;;5083263;28;20075;-55
2023/08/17 00:54:48;;;;;;;0.10;0.10;;;;;;;;;;5100763;28;20308;-55
2023/08/17 00:57:14;;;;;;;0.10;0.10;;;;;;;;;;5099297;28;20120;-55
2023/08/17 00:59:39;;;;;;;0.10;0.10;;;;;;;;;;5100219;28;20043;-55
2023/08/17 01:02:07;;;;;;;0.10;0.10;;;;;;;;;;5107883;28;20565;-55
2023/08/17 01:04:32;;;;;;;0.10;0.10;;;;;;;;;;5097142;28;20049;-56
2023/08/17 01:06:58;;;;;;;0.15;0.15;;;;;;;;;;5099599;28;20044;-56
2023/08/17 01:09:23;;;;;;;0.20;0.20;;;;;;;;;;5099221;28;20055;-56
2023/08/17 01:11:52;;;;;;;0.10;0.10;;;;;;;;;;5101946;28;20831;-56
2023/08/17 01:14:26;;;;;;;0.10;0.10;;;;;;;;;;5106585;28;20046;-55
2023/08/17 01:16:59;;;;;;;0.10;0.10;;;;;;;;;;5109542;28;20123;-55
2023/08/17 01:19:26;;;;;;;0.10;0.10;;;;;;;;;;5099385;28;20043;-55
2023/08/17 01:21:54;;;;;;;0.10;0.10;;;;;;;;;;5081443;28;20048;-55
2023/08/17 01:24:19;;;;;;;0.10;0.10;;;;;;;;;;5079587;28;20497;-56
2023/08/17 01:26:45;;;;;;;0.10;0.10;;;;;;;;;;5112529;28;20113;-55
2023/08/17 01:29:11;;;;;;;0.10;0.10;;;;;;;;;;5115068;28;20377;-56
2023/08/17 01:31:39;;;;;;;0.10;0.10;;;;;;;;;;5088229;28;20254;-56
2023/08/17 01:34:07;;;;;;;0.10;0.10;;;;;;;;;;5090116;28;20818;-55
2023/08/17 01:36:35;;;;;;;0.10;0.10;;;;;;;;;;5107990;28;20208;-56
2023/08/17 01:39:01;;;;;;;0.10;0.10;;;;;;;;;;5098486;28;20484;-55
2023/08/17 01:41:27;;;;;;;0.10;0.10;;;;;;;;;;5095212;28;20188;-55
2023/08/17 01:43:53;;;;;;;0.17;0.17;;;;;;;;;;5098282;28;20043;-57
2023/08/17 01:46:19;;;;;;;0.10;0.10;;;;;;;;;;5111525;28;20358;-57
2023/08/17 01:48:45;;;;;;;1.00;0.20;;;;;;;;;;5118445;28;20051;-57
2023/08/17 01:51:11;;;;;;;0.10;0.10;;;;;;;;;;5105812;28;20085;-57
2023/08/17 01:53:37;;;;;;;0.10;0.10;;;;;;;;;;5090753;28;20292;-57
2023/08/17 01:56:03;;;;;;;0.10;0.10;;;;;;;;;;5088866;28;20133;-57
2023/08/17 01:58:28;;;;;;;0.10;0.10;;;;;;;;;;5097466;27;20142;-57
2023/08/17 02:00:54;;;;;;;0.20;0.20;;;;;;;;;;5098256;28;20428;-57
2023/08/17 02:03:19;;;;;;;0.10;0.10;;;;;;;;;;5104366;28;20542;-57
2023/08/17 02:05:45;;;;;;;0.10;0.10;;;;;;;;;;5098696;28;20052;-57
2023/08/17 02:08:11;;;;;;;0.10;0.10;;;;;;;;;;5098856;28;20078;-57
2023/08/17 02:10:36;;;;;;;0.10;0.10;;;;;;;;;;5094815;28;20054;-57
2023/08/17 02:13:02;;;;;;;0.17;0.17;;;;;;;;;;5099315;28;20058;-55
2023/08/17 02:15:43;;;;;;;0.10;0.10;;;;;;;;;;5103883;28;20454;-57
2023/08/17 02:18:08;;;;;;;0.10;0.10;;;;;;;;;;5116577;28;20530;-57
2023/08/17 02:20:34;;;;;;;0.10;0.10;;;;;;;;;;5108507;28;20170;-57
2023/08/17 02:23:00;;;;;;;0.10;0.10;;;;;;;;;;5077439;28;20101;-57
2023/08/17 02:25:27;;;;;;;0.10;0.10;;;;;;;;;;5077452;28;20048;-57
2023/08/17 02:27:52;;;;;;;0.10;0.10;;;;;;;;;;5094490;28;20537;-57
2023/08/17 02:30:18;;;;;;;0.10;0.10;;;;;;;;;;5095238;28;20048;-57
2023/08/17 02:32:43;;;;;;;0.10;0.10;;;;;;;;;;5098791;28;20056;-57
2023/08/17 02:35:09;;;;;;;0.10;0.10;;;;;;;;;;5084377;28;20131;-57
2023/08/17 02:37:34;;;;;;;0.10;0.10;;;;;;;;;;5098223;28;20463;-57
2023/08/17 02:40:00;;;;;;;0.10;0.10;;;;;;;;;;5105648;28;20397;-57
2023/08/17 02:42:25;;;;;;;0.10;0.10;;;;;;;;;;5097060;28;20452;-57
2023/08/17 02:44:51;;;;;;;0.10;0.10;;;;;;;;;;5112544;28;20047;-56
2023/08/17 02:47:17;;;;;;;0.10;0.10;;;;;;;;;;5103615;28;20103;-55
2023/08/17 02:49:42;;;;;;;0.10;0.10;;;;;;;;;;5116085;28;20212;-56
2023/08/17 02:52:08;;;;;;;0.10;0.10;;;;;;;;;;5083809;28;20090;-57
2023/08/17 02:54:33;;;;;;;0.10;0.10;;;;;;;;;;5087735;28;20117;-57
2023/08/17 02:56:59;;;;;;;0.10;0.10;;;;;;;;;;5093906;28;20094;-57
2023/08/17 02:59:25;;;;;;;0.10;0.10;;;;;;;;;;5115677;28;20047;-57
2023/08/17 03:01:50;;;;;;;0.10;0.10;;;;;;;;;;5092739;28;20483;-55
2023/08/17 03:04:16;;;;;;;0.20;0.20;;;;;;;;;;5106940;28;20123;-55
2023/08/17 03:06:42;;;;;;;0.10;0.10;;;;;;;;;;5101285;28;20044;-57
2023/08/17 03:09:07;;;;;;;0.30;0.30;;;;;;;;;;5107250;27;20078;-57
2023/08/17 03:11:33;;;;;;;0.10;0.10;;;;;;;;;;5097767;28;20066;-57
2023/08/17 03:14:00;;;;;;;0.13;0.13;;;;;;;;;;5096713;28;20070;-57
2023/08/17 03:16:26;;;;;;;0.10;0.10;;;;;;;;;;5101486;28;20386;-55
2023/08/17 03:18:52;;;;;;;0.20;0.20;;;;;;;;;;5108370;28;20059;-55
2023/08/17 03:21:18;;;;;;;0.10;0.10;;;;;;;;;;5107062;28;20051;-57
2023/08/17 03:23:44;;;;;;;0.10;0.10;;;;;;;;;;5092674;28;20074;-57
2023/08/17 03:26:09;;;;;;;0.15;0.15;;;;;;;;;;5076603;28;20040;-57
2023/08/17 03:28:35;;;;;;;0.10;0.10;;;;;;;;;;5083703;28;20399;-55
2023/08/17 03:31:01;;;;;;;0.10;0.10;;;;;;;;;;5096050;28;20456;-55
2023/08/17 03:33:27;;;;;;;0.10;0.10;;;;;;;;;;5104403;28;20055;-55
2023/08/17 03:35:52;;;;;;;0.10;0.10;;;;;;;;;;5089669;28;20048;-55
2023/08/17 03:38:18;;;;;;;0.10;0.10;;;;;;;;;;5104224;28;20048;-56
2023/08/17 03:40:44;;;;;;;0.10;0.10;;;;;;;;;;5104377;28;20496;-57
2023/08/17 03:43:09;;;;;;;0.10;0.10;;;;;;;;;;5110646;28;20047;-57
2023/08/17 03:45:35;;;;;;;0.10;0.10;;;;;;;;;;5097635;28;20531;-57
2023/08/17 03:48:00;;;;;;;0.10;0.10;;;;;;;;;;5104766;28;20510;-57
2023/08/17 03:50:27;;;;;;;0.10;0.10;;;;;;;;;;5102927;28;20052;-57
2023/08/17 03:52:53;;;;;;;0.10;0.10;;;;;;;;;;5076080;28;20488;-57
2023/08/17 03:55:18;;;;;;;0.10;0.10;;;;;;;;;;5092702;28;20112;-57
2023/08/17 03:57:44;;;;;;;0.10;0.10;;;;;;;;;;5096537;28;20054;-57
2023/08/17 04:00:10;;;;;;;0.10;0.10;;;;;;;;;;5098218;28;20547;-57
2023/08/17 04:02:36;;;;;;;0.10;0.10;;;;;;;;;;5097101;28;20554;-57
2023/08/17 04:05:02;;;;;;;0.10;0.10;;;;;;;;;;5106486;28;20046;-57
2023/08/17 04:07:28;;;;;;;0.10;0.10;;;;;;;;;;5107897;28;20056;-55
2023/08/17 04:09:54;;;;;;;0.10;0.10;;;;;;;;;;5097444;28;20043;-56
2023/08/17 04:12:19;;;;;;;0.22;0.10;;;;;;;;;;5097698;28;20509;-55
2023/08/17 04:14:45;;;;;;;0.10;0.10;;;;;;;;;;5097547;28;20393;-55
2023/08/17 04:17:11;;;;;;;0.10;0.10;;;;;;;;;;5097580;28;20156;-55
2023/08/17 04:19:37;;;;;;;0.10;0.10;;;;;;;;;;5098061;28;20399;-57
2023/08/17 04:22:02;;;;;;;0.10;0.10;;;;;;;;;;5091601;28;20400;-57
2023/08/17 04:24:28;;;;;;;0.10;0.10;;;;;;;;;;5101355;28;20181;-56
2023/08/17 04:26:53;;;;;;;0.10;0.10;;;;;;;;;;5099612;28;20124;-55
2023/08/17 04:29:19;;;;;;;0.10;0.10;;;;;;;;;;5099369;28;20043;-56
2023/08/17 04:31:45;;;;;;;0.10;0.10;;;;;;;;;;5097361;28;20051;-57
2023/08/17 04:34:11;;;;;;;0.10;0.10;;;;;;;;;;5102207;28;20135;-57
2023/08/17 04:36:36;;;;;;;0.10;0.10;;;;;;;;;;5099834;28;20051;-57
2023/08/17 04:39:04;;;;;;;0.10;0.10;;;;;;;;;;5105433;28;20138;-57
2023/08/17 04:41:30;;;;;;;0.10;0.10;;;;;;;;;;5102195;28;20247;-57
2023/08/17 04:43:55;;;;;;;0.10;0.10;;;;;;;;;;5110432;28;20107;-57
2023/08/17 04:46:21;;;;;;;0.10;0.10;;;;;;;;;;5100025;28;20123;-57
2023/08/17 04:48:47;;;;;;;0.10;0.10;;;;;;;;;;5114710;28;20052;-57
2023/08/17 04:51:12;;;;;;;0.10;0.10;;;;;;;;;;5108743;28;20703;-56
2023/08/17 04:53:41;;;;;;;0.10;0.10;;;;;;;;;;5117277;28;20040;-55
2023/08/17 04:56:06;;;;;;;0.10;0.10;;;;;;;;;;5092560;28;20051;-55
2023/08/17 04:58:32;;;;;;;0.10;0.10;;;;;;;;;;5078878;28;20058;-57
2023/08/17 05:00:58;;;;;;;0.10;0.10;;;;;;;;;;5093778;27;20043;-57
2023/08/17 05:03:24;;;;;;;0.10;0.10;;;;;;;;;;5097437;28;20154;-57
2023/08/17 05:05:57;;;;;;;0.10;0.10;;;;;;;;;;5098643;28;20122;-57
2023/08/17 05:08:22;;;;;;;0.10;0.10;;;;;;;;;;5099957;28;20341;-57
2023/08/17 05:10:48;;;;;;;0.10;0.10;;;;;;;;;;5093372;28;20474;-57
2023/08/17 05:13:14;;;;;;;0.10;0.10;;;;;;;;;;5092293;28;20083;-57
2023/08/17 05:15:39;;;;;;;0.20;0.20;;;;;;;;;;5097096;28;20050;-57
2023/08/17 05:18:05;;;;;;;0.10;0.10;;;;;;;;;;5098874;28;20120;-57
2023/08/17 05:20:31;;;;;;;0.13;0.13;;;;;;;;;;5103494;28;20075;-57
2023/08/17 05:22:56;;;;;;;0.15;0.15;;;;;;;;;;5100542;28;20079;-57
2023/08/17 05:25:22;;;;;;;0.10;0.10;;;;;;;;;;5100162;28;20071;-55
2023/08/17 05:27:49;;;;;;;0.10;0.10;;;;;;;;;;5093516;28;20047;-57
2023/08/17 05:30:14;;;;;;;0.10;0.10;;;;;;;;;;5087780;28;20083;-57
2023/08/17 05:32:40;;;;;;;0.10;0.10;;;;;;;;;;5090552;28;20081;-57
2023/08/17 05:35:06;;;;;;;0.30;0.30;;;;;;;;;;5101753;28;20044;-57
2023/08/17 05:37:31;;;;;;;0.10;0.10;;;;;;;;;;5099339;28;20050;-57
2023/08/17 05:39:57;;;;;;;0.10;0.10;;;;;;;;;;5091544;28;20171;-57
2023/08/17 05:42:22;;;;;;;0.10;0.10;;;;;;;;;;5085757;28;21151;-57
2023/08/17 05:44:48;;;;;;;0.10;0.10;;;;;;;;;;5089031;28;20134;-57
2023/08/17 05:47:17;;;;;;;0.10;0.10;;;;;;;;;;5105249;28;20086;-57
2023/08/17 05:49:43;;;;;;;0.10;0.10;;;;;;;;;;5095878;28;20729;-57
2023/08/17 05:52:08;;;;;;;0.10;0.10;;;;;;;;;;5097606;28;20520;-57
2023/08/17 05:54:34;;;;;;;0.15;0.15;;;;;;;;;;5091040;28;20040;-57
2023/08/17 05:56:59;;;;;;;0.10;0.10;;;;;;;;;;5067711;28;20043;-56
2023/08/17 05:59:25;;;;;;;0.10;0.10;;;;;;;;;;5074703;28;20318;-56
2023/08/17 06:01:50;;;;;;;0.10;0.10;;;;;;;;;;5062721;28;20044;-56
2023/08/17 06:04:16;;;;;;;0.10;0.10;;;;;;;;;;5069692;28;20232;-57
2023/08/17 06:06:42;;;;;;;0.15;0.15;;;;;;;;;;5073546;28;20105;-56
2023/08/17 06:09:08;;;;;;;0.10;0.10;;;;;;;;;;5081427;28;20048;-55
2023/08/17 06:11:34;;;;;;;0.10;0.10;;;;;;;;;;5092208;28;20089;-55
2023/08/17 06:13:59;;;;;;;0.10;0.10;;;;;;;;;;5093469;28;20043;-56
2023/08/17 06:16:25;;;;;;;0.25;0.25;;;;;;;;;;5092271;28;20032;-55
2023/08/17 06:18:50;;;;;;;0.22;0.20;;;;;;;;;;5095059;28;20040;-55
2023/08/17 06:21:16;;;;;;;0.10;0.10;;;;;;;;;;5089562;28;20043;-56
2023/08/17 06:23:42;;;;;;;0.20;0.20;;;;;;;;;;5095007;28;20066;-56
2023/08/17 06:26:07;;;;;;;0.40;0.40;;;;;;;;;;5084871;28;20127;-56
2023/08/17 06:28:33;;;;;;;0.10;0.10;;;;;;;;;;5089978;28;20545;-57
2023/08/17 06:30:59;;;;;;;0.10;0.10;;;;;;;;;;5078949;28;20486;-56
2023/08/17 06:33:24;;;;;;;0.10;0.10;;;;;;;;;;5086459;28;20488;-57
2023/08/17 06:35:50;;;;;;;0.10;0.10;;;;;;;;;;5084665;28;20047;-55
2023/08/17 06:38:15;;;;;;;0.10;0.10;;;;;;;;;;5082688;28;20409;-55
2023/08/17 06:40:41;;;;;;;0.10;0.10;;;;;;;;;;5072543;28;20176;-56
2023/08/17 06:43:06;;;;;;;0.20;0.20;;;;;;;;;;5083501;28;20527;-56
2023/08/17 06:45:32;;;;;;;0.10;0.10;;;;;;;;;;5090987;28;20219;-57
2023/08/17 06:47:58;;;;;;;0.10;0.10;;;;;;;;;;5084618;28;20074;-55
2023/08/17 06:50:23;;;;;;;0.10;0.10;;;;;;;;;;5080843;28;20560;-57
2023/08/17 06:52:49;;;;;;;0.10;0.10;;;;;;;;;;5093811;28;20047;-56
2023/08/17 06:55:15;;;;;;;0.32;0.32;;;;;;;;;;5073257;28;20464;-57
2023/08/17 06:57:41;;;;;;;0.10;0.10;;;;;;;;;;5068026;28;20120;-56
2023/08/17 07:00:07;;;;;;;0.10;0.10;;;;;;;;;;5066190;28;20493;-57
2023/08/17 07:02:33;;;;;;;0.10;0.10;;;;;;;;;;5063899;28;20470;-57
2023/08/17 07:05:18;;;;;;;0.10;0.10;;;;;;;;;;5061625;28;20078;-57
2023/08/17 07:07:44;;;;;;;0.10;0.10;;;;;;;;;;5064901;28;20536;-56
2023/08/17 07:10:10;;;;;;;0.10;0.10;;;;;;;;;;5070822;28;20392;-57
2023/08/17 07:12:36;;;;;;;0.20;0.20;;;;;;;;;;5079001;28;20048;-57
2023/08/17 07:15:04;;;;;;;0.10;0.10;;;;;;;;;;5076442;28;20055;-57
2023/08/17 07:17:29;;;;;;;0.10;0.10;;;;;;;;;;5072889;27;20043;-57
2023/08/17 07:19:55;;;;;;;0.10;0.10;;;;;;;;;;5078933;28;20039;-55
2023/08/17 07:22:41;;;;;;;0.10;0.10;;;;;;;;;;5068393;28;20139;-55
2023/08/17 07:25:08;;;;;;;0.10;0.10;;;;;;;;;;5088154;28;20298;-55
2023/08/17 07:27:34;;;;;;;0.20;0.20;;;;;;;;;;5083439;28;20067;-56
2023/08/17 07:29:59;;;;;;;0.25;0.17;;;;;;;;;;5083465;28;20074;-56
2023/08/17 07:32:26;;;;;;;0.10;0.10;;;;;;;;;;5082701;28;20086;-56
2023/08/17 07:34:51;;;;;;;0.10;0.10;;;;;;;;;;5079626;28;20079;-56
2023/08/17 07:37:17;;;;;;;0.10;0.10;;;;;;;;;;5083259;28;20044;-55
2023/08/17 07:39:42;;;;;;;0.10;0.10;;;;;;;;;;5087337;28;20044;-56
2023/08/17 07:42:08;;;;;;;0.17;0.17;;;;;;;;;;5078698;28;20097;-56
2023/08/17 07:44:34;;;;;;;0.10;0.10;;;;;;;;;;5074828;28;20054;-55
2023/08/17 07:47:00;;;;;;;0.10;0.10;;;;;;;;;;5094254;28;20051;-55
2023/08/17 07:49:25;;;;;;;0.10;0.10;;;;;;;;;;5080166;28;20437;-56
2023/08/17 07:51:58;;;;;;;0.10;0.10;;;;;;;;;;5076688;28;20047;-56
2023/08/17 07:54:23;;;;;;;0.20;0.20;;;;;;;;;;5079701;28;20136;-56
2023/08/17 07:56:49;;;;;;;0.10;0.10;;;;;;;;;;5083838;28;20050;-56
2023/08/17 07:59:14;;;;;;;0.35;0.35;;;;;;;;;;5081892;28;20046;-57
2023/08/17 08:01:40;;;;;;;0.10;0.10;;;;;;;;;;5079037;28;20052;-55
2023/08/17 08:04:06;;;;;;;0.10;0.10;;;;;;;;;;5070897;28;20138;-56
2023/08/17 08:06:32;;;;;;;0.10;0.10;;;;;;;;;;5072735;28;21034;-57
2023/08/17 08:08:58;;;;;;;0.10;0.10;;;;;;;;;;5074417;28;20043;-57
2023/08/17 08:11:23;;;;;;;0.10;0.10;;;;;;;;;;5072003;28;20044;-56
2023/08/17 08:13:49;;;;;;;0.10;0.10;;;;;;;;;;5077933;28;20130;-57
2023/08/17 08:16:14;;;;;;;0.10;0.10;;;;;;;;;;5074618;28;20440;-57
2023/08/17 08:18:40;;;;;;;0.10;0.10;;;;;;;;;;5089118;28;20392;-56
2023/08/17 08:21:06;;;;;;;0.10;0.10;;;;;;;;;;5078942;28;20043;-57
2023/08/17 08:23:31;;;;;;;0.10;0.10;;;;;;;;;;5075705;28;20058;-55
2023/08/17 08:25:58;;;;;;;0.10;0.10;;;;;;;;;;5076764;28;20040;-57
2023/08/17 08:28:24;;;;;;;0.10;0.10;;;;;;;;;;5077316;28;20075;-55
2023/08/17 08:30:49;;;;;;;0.10;0.10;;;;;;;;;;5088701;28;20047;-57
2023/08/17 08:33:15;;;;;;;0.10;0.10;;;;;;;;;;5072688;28;20247;-57
2023/08/17 08:35:40;;;;;;;0.10;0.10;;;;;;;;;;5077701;28;20048;-56
2023/08/17 08:38:06;;;;;;;0.10;0.10;;;;;;;;;;5068688;28;21973;-62
2023/08/17 08:40:32;;;;;;;0.10;0.10;;;;;;;;;;5078689;28;20341;-57
2023/08/17 08:42:58;;;;;;;0.20;0.20;;;;;;;;;;5084014;28;20070;-57
2023/08/17 08:45:24;;;;;;;0.10;0.10;;;;;;;;;;5082332;28;20309;-57
2023/08/17 08:47:51;;;;;;;0.10;0.10;;;;;;;;;;5088008;28;20043;-57
2023/08/17 08:50:18;;;;;;;0.20;0.20;;;;;;;;;;5088725;28;20109;-57
2023/08/17 08:52:49;;;;;;;0.10;0.10;;;;;;;;;;5097144;28;20051;-57
2023/08/17 08:55:17;;;;;;;0.10;0.10;;;;;;;;;;5090838;28;20245;-57
2023/08/17 08:57:42;;;;;;;0.20;0.20;;;;;;;;;;5092686;28;20067;-57
2023/08/17 09:00:09;;;;;;;0.10;0.10;;;;;;;;;;5084216;27;21556;-52
2023/08/17 09:02:34;;;;;;;0.10;0.10;;;;;;;;;;5086083;28;20244;-57
2023/08/17 09:05:01;;;;;;;0.10;0.10;;;;;;;;;;5092552;28;20467;-57
2023/08/17 09:07:28;;;;;;;0.10;0.10;;;;;;;;;;5090883;28;20177;-57
2023/08/17 09:09:55;;;;;;;0.17;0.17;;;;;;;;;;5088673;28;20047;-57
2023/08/17 09:12:21;;;;;;;0.10;0.10;;;;;;;;;;5087186;28;20100;-57
2023/08/17 09:15:05;;;;;;;0.10;0.10;;;;;;;;;;5095365;28;20051;-57
2023/08/17 09:17:34;;;;;;;0.10;0.10;;;;;;;;;;5092548;28;20054;-57
2023/08/17 09:19:59;;;;;;;0.20;0.20;;;;;;;;;;5085414;28;20058;-57
2023/08/17 09:22:26;;;;;;;0.10;0.10;;;;;;;;;;5092481;28;20471;-57
2023/08/17 09:24:52;;;;;;;0.10;0.10;;;;;;;;;;5089580;28;20687;-57
2023/08/17 09:27:18;;;;;;;0.15;0.15;;;;;;;;;;5096866;28;20547;-57
2023/08/17 09:29:45;;;;;;;0.10;0.10;;;;;;;;;;5094146;28;20126;-57
2023/08/17 09:32:11;;;;;;;0.10;0.10;;;;;;;;;;5091142;28;20271;-57
2023/08/17 09:34:37;;;;;;;0.10;0.10;;;;;;;;;;5089886;28;20054;-57
2023/08/17 09:37:03;;;;;;;0.10;0.10;;;;;;;;;;5077134;28;20044;-57
2023/08/17 09:39:29;;;;;;;0.10;0.10;;;;;;;;;;5074040;28;20601;-57
2023/08/17 09:41:55;;;;;;;0.10;0.10;;;;;;;;;;5073964;28;20039;-58
2023/08/17 09:44:21;;;;;;;0.20;0.20;;;;;;;;;;5079872;28;20040;-57
2023/08/17 09:46:47;;;;;;;0.13;0.13;;;;;;;;;;5073533;28;20086;-57
2023/08/17 09:49:13;;;;;;;0.20;0.20;;;;;;;;;;5080333;28;20086;-57
2023/08/17 09:51:42;;;;;;;0.15;0.15;;;;;;;;;;5088469;28;20570;-57
2023/08/17 09:54:18;;;;;;;0.10;0.10;;;;;;;;;;5088368;28;20463;-57
2023/08/17 09:56:43;;;;;;;0.10;0.10;;;;;;;;;;5088410;28;20047;-57
2023/08/17 09:59:09;;;;;;;0.10;0.10;;;;;;;;;;5092802;28;20138;-57
2023/08/17 10:01:35;;;;;;;0.10;0.10;;;;;;;;;;5092906;27;20351;-56
2023/08/17 10:04:02;;;;;;;0.20;0.15;;;;;;;;;;5085158;28;20374;-56
2023/08/17 10:06:29;;;;;;;0.20;0.20;;;;;;;;;;5092911;28;20131;-58
2023/08/17 10:08:56;;;;;;;0.10;0.10;;;;;;;;;;5089778;28;20041;-58
2023/08/17 10:11:23;;;;;;;0.10;0.10;;;;;;;;;;5090958;28;20054;-57
2023/08/17 10:13:54;;;;;;;0.20;0.20;;;;;;;;;;5086155;28;20044;-57
2023/08/17 10:16:31;;;;;;;0.10;0.10;;;;;;;;;;5090580;28;20067;-58
2023/08/17 10:19:17;;;;;;;0.10;0.10;;;;;;;;;;5089781;27;20397;-58
2023/08/17 10:22:02;;;;;;;0.10;0.10;;;;;;;;;;5071743;28;20047;-57
2023/08/17 10:24:28;;;;;;;0.10;0.10;;;;;;;;;;5079007;28;20590;-58
2023/08/17 10:26:54;;;;;;;0.10;0.10;;;;;;;;;;5090509;28;20060;-58
2023/08/17 10:29:22;;;;;;;0.10;0.10;;;;;;;;;;5088586;28;20055;-58
2023/08/17 10:31:48;;;;;;;0.15;0.15;;;;;;;;;;5090678;28;20085;-56
2023/08/17 10:34:15;;;;;;;0.10;0.10;;;;;;;;;;5096009;28;20736;-58
2023/08/17 10:36:41;;;;;;;0.22;0.22;;;;;;;;;;5094815;28;20039;-54
2023/08/17 10:39:22;;;;;;;0.20;0.20;;;;;;;;;;5088380;28;20052;-53
2023/08/17 10:41:52;;;;;;;0.10;0.10;;;;;;;;;;5083210;28;20095;-54
2023/08/17 10:44:38;;;;;;;0.10;0.10;;;;;;;;;;5085508;28;20076;-54
2023/08/17 10:47:18;;;;;;;0.10;0.10;;;;;;;;;;5083219;28;20086;-53
2023/08/17 10:49:44;;;;;;;0.10;0.10;;;;;;;;;;5078762;28;20048;-53
2023/08/17 10:52:09;;;;;;;0.10;0.10;;;;;;;;;;5091391;28;20482;-52
2023/08/17 10:54:36;;;;;;;0.10;0.10;;;;;;;;;;5095174;28;20094;-55
2023/08/17 10:57:22;;;;;;;0.10;0.10;;;;;;;;;;5084746;28;20435;-54
2023/08/17 11:00:05;;;;;;;0.10;0.10;;;;;;;;;;5081171;28;20643;-52
2023/08/17 11:02:32;;;;;;;0.17;0.17;;;;;;;;;;5086148;28;20507;-54
2023/08/17 11:05:01;;;;;;;0.10;0.10;;;;;;;;;;5083818;28;21014;-53
2023/08/17 11:07:28;;;;;;;0.10;0.10;;;;;;;;;;5086963;28;20874;-52
2023/08/17 11:09:53;;;;;;;0.10;0.10;;;;;;;;;;5083210;28;20067;-50
2023/08/17 11:12:26;;;;;;;0.20;0.20;;;;;;;;;;5090416;28;20054;-54
2023/08/17 11:14:52;;;;;;;0.10;0.10;;;;;;;;;;5093127;28;20051;-54
2023/08/17 11:17:21;;;;;;;0.10;0.10;;;;;;;;;;5093991;28;20047;-55
2023/08/17 11:19:50;;;;;;;0.10;0.10;;;;;;;;;;5087440;28;20050;-50
2023/08/17 11:22:16;;;;;;;0.10;0.10;;;;;;;;;;5089270;28;20043;-54
2023/08/17 11:24:45;;;;;;;0.10;0.10;;;;;;;;;;5085919;28;20051;-53
2023/08/17 11:27:11;;;;;;;0.10;0.10;;;;;;;;;;5083666;28;20884;-49
2023/08/17 11:29:37;;;;;;;0.10;0.10;;;;;;;;;;5092647;27;20062;-58
2023/08/17 11:32:04;;;;;;;0.10;0.10;;;;;;;;;;5080442;28;20052;-60
2023/08/17 11:34:30;;;;;;;0.47;0.40;;;;;;;;;;5078709;28;20170;-54
2023/08/17 11:36:57;;;;;;;0.10;0.10;;;;;;;;;;5093829;28;20552;-54
2023/08/17 11:39:22;;;;;;;0.10;0.10;;;;;;;;;;5092676;28;20458;-54
2023/08/17 11:41:48;;;;;;;0.10;0.10;;;;;;;;;;5083348;28;20584;-52
2023/08/17 11:44:14;;;;;;;0.10;0.10;;;;;;;;;;5088203;28;20122;-54
2023/08/17 11:46:40;;;;;;;0.10;0.10;;;;;;;;;;5079080;28;20047;-54
2023/08/17 11:49:06;;;;;;;0.10;0.10;;;;;;;;;;5074445;28;20267;-54
2023/08/17 11:51:32;;;;;;;0.10;0.10;;;;;;;;;;5092926;28;20062;-53
2023/08/17 11:53:59;;;;;;;0.10;0.10;;;;;;;;;;5095463;28;20464;-53
2023/08/17 11:56:25;;;;;;;0.10;0.10;;;;;;;;;;5092014;28;20047;-54
2023/08/17 11:58:50;;;;;;;0.10;0.10;;;;;;;;;;5092047;28;20040;-54
2023/08/17 12:01:16;;;;;;;0.10;0.10;;;;;;;;;;5093522;28;20073;-53
2023/08/17 12:03:42;;;;;;;0.10;0.10;;;;;;;;;;5096880;28;20092;-52
2023/08/17 12:06:09;;;;;;;0.10;0.10;;;;;;;;;;5086696;28;20040;-52
2023/08/17 12:08:35;;;;;;;0.22;0.20;;;;;;;;;;5090310;28;20112;-54
2023/08/17 12:11:02;;;;;;;0.10;0.10;;;;;;;;;;5083218;28;20056;-53
2023/08/17 12:13:29;;;;;;;0.10;0.10;;;;;;;;;;5091413;28;20606;-52
2023/08/17 12:15:57;;;;;;;0.10;0.10;;;;;;;;;;5087808;28;20099;-52
2023/08/17 12:18:22;;;;;;;0.20;0.20;;;;;;;;;;5088604;28;20563;-50
2023/08/17 12:20:52;;;;;;;0.10;0.10;;;;;;;;;;5088115;28;20051;-52
2023/08/17 12:23:17;;;;;;;0.10;0.10;;;;;;;;;;5090733;28;20051;-53
2023/08/17 12:25:43;;;;;;;0.13;0.13;;;;;;;;;;5090969;28;20100;-51
2023/08/17 12:28:12;;;;;;;0.10;0.10;;;;;;;;;;5091935;28;20049;-50
2023/08/17 12:30:37;;;;;;;0.10;0.10;;;;;;;;;;5091613;28;20048;-50
2023/08/17 12:33:03;;;;;;;0.10;0.10;;;;;;;;;;5087567;28;20717;-54
2023/08/17 12:35:29;;;;;;;0.10;0.10;;;;;;;;;;5090145;28;20069;-57
2023/08/17 12:37:55;;;;;;;0.10;0.10;;;;;;;;;;5085531;28;20093;-57
2023/08/17 12:40:22;;;;;;;0.13;0.13;;;;;;;;;;5081535;28;20044;-57
2023/08/17 12:42:48;;;;;;;0.10;0.10;;;;;;;;;;5090724;28;20129;-58
2023/08/17 12:45:13;;;;;;;0.10;0.10;;;;;;;;;;5098530;28;20304;-57
2023/08/17 12:47:39;;;;;;;0.15;0.15;;;;;;;;;;5088187;28;20500;-57
2023/08/17 12:50:05;;;;;;;0.10;0.10;;;;;;;;;;5105939;28;20052;-57
2023/08/17 12:52:31;;;;;;;0.13;0.13;;;;;;;;;;5098858;28;20358;-58
2023/08/17 12:54:56;;;;;;;0.10;0.10;;;;;;;;;;5112685;28;20035;-57
2023/08/17 12:57:22;;;;;;;0.10;0.10;;;;;;;;;;5102786;28;20400;-57
2023/08/17 12:59:47;;;;;;;0.10;0.10;;;;;;;;;;5105382;28;20060;-63
2023/08/17 13:02:13;;;;;;;0.10;0.10;;;;;;;;;;5095465;28;20769;-57
2023/08/17 13:04:39;;;;;;;0.10;0.10;;;;;;;;;;5100828;28;20945;-57
2023/08/17 13:07:05;;;;;;;0.20;0.20;;;;;;;;;;5102839;28;20489;-57
2023/08/17 13:09:30;;;;;;;0.10;0.10;;;;;;;;;;5098424;28;20289;-57
2023/08/17 13:11:56;;;;;;;0.10;0.10;;;;;;;;;;5101225;28;20043;-57
2023/08/17 13:14:22;;;;;;;0.10;0.10;;;;;;;;;;5094938;28;20054;-57
2023/08/17 13:16:49;;;;;;;0.20;0.20;;;;;;;;;;5098504;28;20503;-57
2023/08/17 13:19:14;;;;;;;0.10;0.10;;;;;;;;;;5099103;28;20069;-57
2023/08/17 13:21:40;;;;;;;0.10;0.10;;;;;;;;;;5097944;28;20444;-57
2023/08/17 13:24:06;;;;;;;0.20;0.20;;;;;;;;;;5102061;28;20408;-57
2023/08/17 13:26:32;;;;;;;0.10;0.10;;;;;;;;;;5097823;28;20039;-57
2023/08/17 13:28:57;;;;;;;0.10;0.10;;;;;;;;;;5096669;28;20047;-57
2023/08/17 13:31:23;;;;;;;0.10;0.10;;;;;;;;;;5098153;28;20432;-57
2023/08/17 13:33:50;;;;;;;0.10;0.10;;;;;;;;;;5105880;28;20751;-57
2023/08/17 13:36:16;;;;;;;0.10;0.10;;;;;;;;;;5088621;28;20324;-57
2023/08/17 13:38:42;;;;;;;0.10;0.10;;;;;;;;;;5105965;28;20603;-57
2023/08/17 13:41:08;;;;;;;0.10;0.10;;;;;;;;;;5098415;28;20070;-57
2023/08/17 13:43:34;;;;;;;0.10;0.10;;;;;;;;;;5103122;28;20290;-57
2023/08/17 13:45:59;;;;;;;0.10;0.10;;;;;;;;;;5097374;28;20055;-57
2023/08/17 13:48:25;;;;;;;0.10;0.10;;;;;;;;;;5095828;28;20138;-57
2023/08/17 13:50:50;;;;;;;0.10;0.10;;;;;;;;;;5104352;28;20042;-57
2023/08/17 13:53:16;;;;;;;0.10;0.10;;;;;;;;;;5096013;28;20052;-57
2023/08/17 13:55:41;;;;;;;0.10;0.10;;;;;;;;;;5099433;28;20133;-57
2023/08/17 13:58:09;;;;;;;0.10;0.10;;;;;;;;;;5102483;28;20373;-57
2023/08/17 14:00:35;;;;;;;0.10;0.10;;;;;;;;;;5107319;28;20081;-57
2023/08/17 14:03:01;;;;;;;0.10;0.10;;;;;;;;;;5102070;28;20039;-57
2023/08/17 14:05:27;;;;;;;0.10;0.10;;;;;;;;;;5103155;28;20043;-57
2023/08/17 14:07:53;;;;;;;0.10;0.10;;;;;;;;;;5106084;28;20444;-57
2023/08/17 14:10:18;;;;;;;0.10;0.10;;;;;;;;;;5090493;28;20082;-57
2023/08/17 14:13:04;;;;;;;0.10;0.10;;;;;;;;;;5094827;28;20394;-57
2023/08/17 14:15:30;;;;;;;0.10;0.10;;;;;;;;;;5101249;28;20040;-57
2023/08/17 14:17:55;;;;;;;0.17;0.17;;;;;;;;;;5110411;28;20078;-58
2023/08/17 14:20:21;;;;;;;0.10;0.10;;;;;;;;;;5111571;28;20047;-63
2023/08/17 14:22:47;;;;;;;0.10;0.10;;;;;;;;;;5101357;28;20449;-57
2023/08/17 14:25:13;;;;;;;0.10;0.10;;;;;;;;;;5103832;28;20053;-57
2023/08/17 14:27:38;;;;;;;0.10;0.10;;;;;;;;;;5106145;28;20108;-57
2023/08/17 14:30:04;;;;;;;0.10;0.10;;;;;;;;;;5113577;28;20091;-57
2023/08/17 14:32:30;;;;;;;0.10;0.10;;;;;;;;;;5098880;28;20047;-58
2023/08/17 14:35:00;;;;;;;0.10;0.10;;;;;;;;;;5101559;28;20366;-57
2023/08/17 14:37:26;;;;;;;0.10;0.10;;;;;;;;;;5105605;28;20039;-57
2023/08/17 14:39:51;;;;;;;0.10;0.10;;;;;;;;;;5111476;28;20035;-57